Time;durP1;ratioP1;P1;durP2;ratioP2;P2;SDS_P1;SDS_P2;PMS_P1;PMS_P2;Temp;Humidity;BMP_temperature;BMP_pressure;BME280_temperature;BME280_humidity;BME280_pressure;Samples;Min_cycle;Max_cycle;Signal;HPM_P1;HPM_P2
2023/09/28 00:09:54;;;;;;;8.63;3.70;;;;;;;12.57;100.00;97979.69;18567579;32;20045;-55
2023/09/28 00:19:57;;;;;;;9.93;3.60;;;;;;;12.57;100.00;97980.50;18566910;32;20041;-55
2023/09/28 00:30:02;;;;;;;6.50;3.77;;;;;;;12.58;100.00;97981.31;18566504;32;20061;-55
2023/09/28 00:40:16;;;;;;;9.70;3.75;;;;;;;12.57;100.00;97971.56;18565587;32;20370;-54
2023/09/28 00:50:20;;;;;;;8.75;4.22;;;;;;;12.59;100.00;97969.38;18565540;32;20369;-56
2023/09/28 01:00:27;;;;;;;6.95;4.10;;;;;;;12.62;100.00;97982.38;18564443;31;20159;-56
2023/09/28 01:10:30;;;;;;;8.80;3.50;;;;;;;12.64;100.00;97972.87;18564361;32;20390;-55
2023/09/28 01:20:37;;;;;;;9.65;4.57;;;;;;;12.67;100.00;97985.09;18549361;32;20112;-55
2023/09/28 01:30:40;;;;;;;5.68;3.70;;;;;;;12.72;100.00;97971.50;18548829;32;20436;-55
2023/09/28 01:40:45;;;;;;;11.45;3.72;;;;;;;12.77;100.00;97976.94;18562130;32;20079;-55
2023/09/28 01:50:48;;;;;;;8.00;4.12;;;;;;;12.80;100.00;97979.09;18561664;32;20044;-55
2023/09/28 02:00:51;;;;;;;11.63;3.45;;;;;;;12.83;100.00;97989.37;18546643;32;20052;-55
2023/09/28 02:10:54;;;;;;;6.73;3.70;;;;;;;12.86;100.00;97977.97;18545483;32;20044;-55
2023/09/28 02:20:59;;;;;;;7.35;4.05;;;;;;;12.82;100.00;97976.88;18560494;32;20093;-55
2023/09/28 02:31:08;;;;;;;7.65;3.67;;;;;;;12.76;100.00;97980.72;18533723;32;20377;-55
2023/09/28 02:41:18;;;;;;;6.00;3.50;;;;;;;12.70;100.00;97979.09;18545018;32;20108;-56
2023/09/28 02:51:22;;;;;;;10.60;3.70;;;;;;;12.64;100.00;97991.06;18559393;31;20052;-55
2023/09/28 03:01:26;;;;;;;6.93;3.67;;;;;;;12.62;100.00;97998.66;18569336;32;20488;-55
2023/09/28 03:11:29;;;;;;;5.35;3.85;;;;;;;12.61;100.00;97997.84;18571029;32;20049;-54
2023/09/28 03:21:33;;;;;;;4.37;3.00;;;;;;;12.56;100.00;97997.84;18570615;32;20088;-54
2023/09/28 03:31:36;;;;;;;8.57;3.77;;;;;;;12.58;100.00;97982.13;18556512;32;20036;-56
2023/09/28 03:41:38;;;;;;;6.62;3.80;;;;;;;12.56;100.00;97995.16;18569910;32;20072;-54
2023/09/28 03:51:41;;;;;;;8.48;4.12;;;;;;;12.58;100.00;97997.59;18554872;32;20418;-55
2023/09/28 04:01:44;;;;;;;5.05;3.65;;;;;;;12.56;100.00;97988.91;18554067;32;20497;-55
2023/09/28 04:11:47;;;;;;;5.32;3.40;;;;;;;12.48;100.00;97991.09;18566913;32;20052;-56
2023/09/28 04:21:50;;;;;;;6.55;3.62;;;;;;;12.43;100.00;97988.41;18567101;32;20064;-56
2023/09/28 04:31:52;;;;;;;7.00;3.78;;;;;;;12.32;100.00;97970.50;18566653;32;20041;-55
2023/09/28 04:41:55;;;;;;;6.22;3.47;;;;;;;12.14;100.00;97978.16;18565999;31;20116;-55
2023/09/28 04:51:59;;;;;;;4.70;3.42;;;;;;;11.91;100.00;97998.44;18565250;32;20368;-55
2023/09/28 05:02:02;;;;;;;8.73;3.30;;;;;;;11.76;100.00;98007.38;18565004;32;20104;-55
2023/09/28 05:12:05;;;;;;;8.68;4.00;;;;;;;11.68;100.00;98024.16;18563850;32;20109;-55
2023/09/28 05:44:52;;;;;;;9.23;3.33;;;;;;;11.72;100.00;98038.78;18562206;32;20053;-55
2023/09/28 05:54:56;;;;;;;6.07;3.87;;;;;;;11.74;100.00;98042.03;18561534;32;20048;-55
2023/09/28 06:04:59;;;;;;;11.25;3.45;;;;;;;11.70;100.00;98068.03;18561038;32;20070;-55
2023/09/28 06:15:04;;;;;;;7.65;3.87;;;;;;;11.61;100.00;98067.75;18560712;32;20449;-56
2023/09/28 06:25:10;;;;;;;6.53;3.53;;;;;;;11.56;100.00;98080.47;18547666;32;20471;-56
2023/09/28 06:35:13;;;;;;;8.60;3.83;;;;;;;11.52;100.00;98075.59;18555129;32;20100;-55
2023/09/28 06:45:16;;;;;;;6.50;4.22;;;;;;;11.72;100.00;98089.44;18559676;32;20433;-56
2023/09/28 06:55:22;;;;;;;4.65;3.47;;;;;;;11.97;100.00;98086.00;18572421;32;20049;-54
2023/09/28 07:05:24;;;;;;;7.15;3.83;;;;;;;12.16;100.00;98089.81;18570943;31;20114;-55
2023/09/28 07:15:31;;;;;;;5.30;3.40;;;;;;;12.43;100.00;98098.75;18571410;32;20160;-56
2023/09/28 07:25:34;;;;;;;3.70;2.67;;;;;;;12.77;100.00;98111.78;18570550;31;20084;-56
2023/09/28 07:35:37;;;;;;;4.87;3.15;;;;;;;13.09;100.00;98114.16;18543032;32;20041;-56
2023/09/28 07:45:40;;;;;;;4.55;3.12;;;;;;;13.50;100.00;98107.81;18569847;32;20083;-56
2023/09/28 07:55:43;;;;;;;5.20;3.17;;;;;;;13.90;100.00;98125.81;18554999;32;20357;-55
2023/09/28 08:05:46;;;;;;;5.03;3.33;;;;;;;14.33;100.00;98132.63;18567997;32;20052;-56
2023/09/28 08:15:54;;;;;;;4.70;3.12;;;;;;;14.77;100.00;98120.84;18567795;32;20089;-56
2023/09/28 08:25:57;;;;;;;6.90;4.07;;;;;;;15.19;100.00;98122.06;18566934;32;20053;-56
2023/09/28 08:36:00;;;;;;;5.10;3.12;;;;;;;15.59;100.00;98119.97;18566416;32;20067;-57
2023/09/28 08:46:09;;;;;;;4.30;2.53;;;;;;;16.09;100.00;98122.34;18565860;32;20122;-56
2023/09/28 08:56:13;;;;;;;5.60;2.90;;;;;;;16.50;100.00;98128.25;18564632;32;20420;-57
2023/09/28 09:06:16;;;;;;;4.40;2.77;;;;;;;17.06;100.00;98135.53;18550273;32;20470;-57
2023/09/28 09:16:24;;;;;;;4.53;3.12;;;;;;;17.42;100.00;98139.53;18563682;31;20429;-57
2023/09/28 09:26:27;;;;;;;5.10;2.90;;;;;;;17.86;100.00;98127.13;18563315;32;20045;-57
2023/09/28 09:36:31;;;;;;;5.35;3.47;;;;;;;18.33;100.00;98117.91;18548103;32;20048;-57
2023/09/28 09:46:34;;;;;;;;;;;;;;;18.77;100.00;98099.84;18548058;32;20365;-58
2023/09/28 09:56:43;;;;;;;5.37;3.17;;;;;;;19.21;100.00;98108.31;18562008;32;19952;-57
2023/09/28 10:06:58;;;;;;;6.18;3.00;;;;;;;19.61;100.00;98100.88;18560938;32;20032;-57
2023/09/28 10:17:04;;;;;;;5.15;3.37;;;;;;;19.86;100.00;98103.22;18560827;32;20071;-57
2023/09/28 10:27:13;;;;;;;4.75;3.08;;;;;;;20.30;100.00;98095.78;18560463;32;20377;-57
2023/09/28 10:37:18;;;;;;;6.35;3.37;;;;;;;20.64;100.00;98097.69;18559898;32;20053;-57
2023/09/28 10:47:23;;;;;;;4.65;3.17;;;;;;;20.91;100.00;98094.91;18559849;32;20045;-57
2023/09/28 10:57:30;;;;;;;5.07;3.37;;;;;;;21.09;100.00;98093.72;18559574;32;20049;-57
2023/09/28 11:07:36;;;;;;;7.90;3.97;;;;;;;21.35;100.00;98095.56;18558746;32;20044;-57
2023/09/28 11:17:40;;;;;;;7.03;2.97;;;;;;;21.59;82.93;98089.47;18563114;32;20063;-57
2023/09/28 11:27:45;;;;;;;7.05;3.45;;;;;;;21.74;100.00;98081.78;18570736;32;20049;-57
2023/09/28 11:37:48;;;;;;;4.45;2.90;;;;;;;22.14;100.00;98064.78;18556309;32;20041;-57
2023/09/28 11:47:50;;;;;;;;;;;;;;;22.57;100.00;98062.81;18569751;32;20054;-57
2023/09/28 11:58:02;;;;;;;5.97;3.37;;;;;;;22.94;98.88;98044.41;18569202;31;19972;-57
2023/09/28 12:08:06;;;;;;;4.65;2.72;;;;;;;23.21;72.62;98033.06;18568140;32;20483;-57
2023/09/28 12:18:09;;;;;;;4.62;3.00;;;;;;;23.67;83.37;98029.00;18567625;32;20067;-58
2023/09/28 12:28:13;;;;;;;4.40;2.90;;;;;;;24.07;69.91;98015.56;18566267;32;20062;-57
2023/09/28 12:38:16;;;;;;;5.00;3.35;;;;;;;24.58;98.31;98013.00;18552117;32;20057;-58
2023/09/28 12:48:20;;;;;;;4.60;2.83;;;;;;;24.91;89.70;98006.38;18565597;32;20448;-57
2023/09/28 12:58:25;;;;;;;4.32;2.72;;;;;;;25.11;94.26;98012.78;18564641;32;20085;-57
2023/09/28 13:08:31;;;;;;;4.60;3.05;;;;;;;25.00;79.75;98012.53;18550410;32;20042;-58
2023/09/28 13:18:37;;;;;;;4.68;3.05;;;;;;;24.82;73.32;97998.25;18550290;32;20052;-57
2023/09/28 13:28:41;;;;;;;5.18;3.15;;;;;;;24.45;77.16;97992.16;18563089;32;20101;-57
2023/09/28 13:38:51;;;;;;;4.37;2.80;;;;;;;24.28;69.82;97973.91;18562222;32;20064;-57
2023/09/28 13:48:55;;;;;;;5.93;2.92;;;;;;;24.24;68.43;97970.25;18562057;31;20057;-57
2023/09/28 13:58:58;;;;;;;6.53;2.97;;;;;;;24.08;78.51;97959.16;18561412;32;20083;-57
2023/09/28 14:09:02;;;;;;;5.03;2.87;;;;;;;23.97;94.73;97951.37;18559584;32;20061;-57
2023/09/28 14:19:07;;;;;;;4.32;3.05;;;;;;;23.78;89.53;97946.47;18557963;32;20049;-57
2023/09/28 14:29:11;;;;;;;4.40;2.87;;;;;;;23.64;94.62;97935.03;18557867;32;20068;-57
2023/09/28 14:39:15;;;;;;;3.92;2.92;;;;;;;23.49;100.00;97925.56;18543381;32;20087;-57
2023/09/28 14:49:19;;;;;;;3.40;2.22;;;;;;;23.50;100.00;97929.88;18543139;32;20059;-57
2023/09/28 14:59:22;;;;;;;4.05;2.42;;;;;;;23.51;100.00;97917.72;18568047;32;20346;-57
2023/09/28 15:09:25;;;;;;;3.30;2.50;;;;;;;23.23;100.00;97912.97;18555083;32;20067;-57
2023/09/28 15:19:29;;;;;;;3.92;2.50;;;;;;;22.92;100.00;97897.78;18556780;32;20065;-57
2023/09/28 15:29:33;;;;;;;3.28;2.35;;;;;;;22.62;100.00;97887.00;18556847;32;20060;-57
2023/09/28 15:39:37;;;;;;;4.12;2.28;;;;;;;22.36;100.00;97883.78;18569648;31;20387;-57
2023/09/28 15:49:41;;;;;;;3.22;2.20;;;;;;;22.07;100.00;97878.09;18569453;32;20048;-56
2023/09/28 15:59:45;;;;;;;5.53;2.28;;;;;;;21.78;100.00;97884.56;18568761;32;20334;-56
2023/09/28 16:09:49;;;;;;;4.20;2.62;;;;;;;21.48;100.00;97884.63;18554126;32;20041;-56
2023/09/28 16:19:52;;;;;;;4.55;2.25;;;;;;;21.18;100.00;97892.94;18567839;32;20123;-56
2023/09/28 16:29:55;;;;;;;3.65;2.28;;;;;;;20.91;100.00;97897.84;18553020;32;20131;-55
2023/09/28 16:39:58;;;;;;;7.00;2.62;;;;;;;20.64;100.00;97894.38;18566137;32;20083;-56
2023/09/28 16:50:01;;;;;;;3.47;2.47;;;;;;;20.38;100.00;97902.75;18565630;32;20075;-56
2023/09/28 17:00:05;;;;;;;;;;;;;;;20.03;100.00;97905.59;18565372;32;20067;-56
2023/09/28 17:10:08;;;;;;;5.27;3.13;;;;;;;19.68;100.00;97908.38;18564285;32;19943;-56
2023/09/28 17:20:11;;;;;;;;;;;;;;;19.34;100.00;97903.72;18563696;32;20104;-56
2023/09/28 17:30:15;;;;;;;5.87;3.28;;;;;;;18.94;100.00;97910.09;18563506;32;19970;-56
2023/09/28 17:40:18;;;;;;;;;;;;;;;18.57;100.00;97914.97;18562868;32;20116;-56
2023/09/28 17:50:21;;;;;;;3.73;2.43;;;;;;;18.23;100.00;97922.69;18562508;32;19974;-56
2023/09/28 18:00:26;;;;;;;6.03;3.87;;;;;;;17.91;100.00;97938.28;18547773;32;20441;-56
2023/09/28 18:10:31;;;;;;;5.68;3.62;;;;;;;17.66;100.00;97942.41;18546585;32;20097;-56
2023/09/28 18:20:35;;;;;;;6.80;3.30;;;;;;;17.40;100.00;97956.69;18560662;32;20158;-55
2023/09/28 18:30:38;;;;;;;6.90;3.58;;;;;;;17.17;100.00;97969.47;18559996;32;20127;-56
2023/09/28 18:40:42;;;;;;;6.78;3.55;;;;;;;16.98;100.00;97974.25;18560125;32;20135;-56
2023/09/28 18:50:45;;;;;;;6.15;3.70;;;;;;;16.81;100.00;97977.56;18545529;32;20045;-56
2023/09/28 19:00:48;;;;;;;6.67;3.03;;;;;;;16.64;100.00;97994.56;18559432;32;20094;-56
2023/09/28 19:10:57;;;;;;;6.13;2.70;;;;;;;16.46;100.00;97994.31;18558963;32;20357;-53
2023/09/28 19:21:00;;;;;;;4.53;2.87;;;;;;;16.39;100.00;98004.78;18559225;32;20136;-57
2023/09/28 19:31:03;;;;;;;4.43;2.73;;;;;;;16.35;100.00;98020.16;18544773;32;20048;-57
2023/09/28 19:41:07;;;;;;;4.60;2.87;;;;;;;16.30;100.00;98017.53;18550694;32;20061;-56
2023/09/28 19:51:15;;;;;;;5.20;3.00;;;;;;;16.15;100.00;98027.56;18569324;32;20053;-55
2023/09/28 20:01:18;;;;;;;7.97;3.20;;;;;;;16.02;100.00;98039.25;18554929;32;20558;-56
2023/09/28 20:11:20;;;;;;;4.50;2.70;;;;;;;15.88;100.00;98040.00;18567933;32;20071;-56
2023/09/28 20:21:24;;;;;;;6.72;3.00;;;;;;;15.73;100.00;98057.37;18567676;32;20137;-56
2023/09/28 20:31:26;;;;;;;8.93;3.10;;;;;;;15.58;100.00;98047.50;18567359;32;20052;-56
2023/09/28 20:41:30;;;;;;;4.65;2.90;;;;;;;15.39;100.00;98047.47;18551789;32;20478;-56
2023/09/28 20:51:32;;;;;;;4.80;2.80;;;;;;;15.21;100.00;98043.59;18551107;32;20044;-55
2023/09/28 21:01:35;;;;;;;5.05;3.00;;;;;;;15.08;100.00;98050.53;18565156;32;20053;-56
2023/09/28 21:11:38;;;;;;;6.07;3.03;;;;;;;14.91;100.00;98066.56;18564177;32;20067;-56
2023/09/28 21:21:41;;;;;;;5.03;2.37;;;;;;;14.79;100.00;98074.31;18549998;32;20049;-56
2023/09/28 21:31:44;;;;;;;5.60;2.55;;;;;;;14.72;100.00;98059.09;18563405;32;20103;-54
2023/09/28 21:41:47;;;;;;;9.75;3.47;;;;;;;14.54;100.00;98063.34;18562980;32;20087;-56
2023/09/28 21:51:49;;;;;;;4.28;2.65;;;;;;;14.47;100.00;98067.47;18562039;32;20064;-56
2023/09/28 22:01:52;;;;;;;4.32;2.70;;;;;;;14.38;100.00;98075.44;18546973;32;20067;-56
2023/09/28 22:11:54;;;;;;;2.97;2.25;;;;;;;14.26;100.00;98073.09;18561048;32;20044;-56
2023/09/28 22:21:57;;;;;;;6.00;2.70;;;;;;;14.15;100.00;98079.72;18560643;32;20342;-56
2023/09/28 22:31:59;;;;;;;6.07;2.17;;;;;;;14.10;100.00;98088.72;18560439;32;20032;-56
2023/09/28 22:42:02;;;;;;;5.30;2.65;;;;;;;14.02;100.00;98083.88;18560029;32;20335;-55
2023/09/28 22:52:07;;;;;;;8.37;2.90;;;;;;;13.93;100.00;98089.09;18545692;32;20056;-57
2023/09/28 23:02:10;;;;;;;5.35;2.67;;;;;;;13.82;100.00;98085.63;18559532;32;20048;-56
2023/09/28 23:12:12;;;;;;;4.75;2.87;;;;;;;13.72;100.00;98082.97;18561299;32;20060;-55
2023/09/28 23:22:15;;;;;;;5.12;3.20;;;;;;;13.70;100.00;98071.56;18557723;32;20040;-56
2023/09/28 23:32:17;;;;;;;4.35;3.20;;;;;;;13.62;100.00;98075.69;18570705;32;20049;-56
2023/09/28 23:42:20;;;;;;;7.20;3.30;;;;;;;13.55;100.00;98080.59;18555995;32;20040;-57
2023/09/28 23:52:22;;;;;;;4.62;3.08;;;;;;;13.48;100.00;98083.62;18555085;32;20044;-57
